Time;durP1;ratioP1;P1;durP2;ratioP2;P2;SDS_P1;SDS_P2;PMS_P1;PMS_P2;Temp;Humidity;BMP_temperature;BMP_pressure;BME280_temperature;BME280_humidity;BME280_pressure;Samples;Min_cycle;Max_cycle;Signal;HPM_P1;HPM_P2
2021/06/26 00:00:09;;;;;;;3.63;3.33;;;;;;;22.30;100.00;97781.81;5064375;28;20299;-66
2021/06/26 00:02:36;;;;;;;3.50;3.20;;;;;;;22.30;100.00;97778.38;5057289;28;20284;-66
2021/06/26 00:05:03;;;;;;;3.80;3.50;;;;;;;22.30;100.00;97781.81;5069530;28;20288;-66
2021/06/26 00:07:30;;;;;;;3.70;3.40;;;;;;;22.31;100.00;97787.78;5068911;28;20220;-66
2021/06/26 00:09:57;;;;;;;3.13;2.83;;;;;;;22.31;100.00;97790.34;5052036;28;20252;-67
2021/06/26 00:12:23;;;;;;;3.90;3.50;;;;;;;22.30;100.00;97786.06;5073602;28;20774;-66
2021/06/26 00:14:50;;;;;;;3.47;3.17;;;;;;;22.30;100.00;97791.19;5073799;28;20207;-65
2021/06/26 00:17:17;;;;;;;3.70;3.40;;;;;;;22.31;100.00;97792.91;5072129;28;20676;-65
2021/06/26 00:19:44;;;;;;;3.10;2.90;;;;;;;22.31;100.00;97792.91;5072387;28;20255;-63
2021/06/26 00:22:10;;;;;;;3.40;3.13;;;;;;;22.30;100.00;97788.63;5073897;28;20620;-65
2021/06/26 00:24:37;;;;;;;3.50;3.20;;;;;;;22.31;100.00;97793.78;5072865;28;20300;-65
2021/06/26 00:27:03;;;;;;;4.37;3.70;;;;;;;22.29;100.00;97790.28;5073072;28;20238;-66
2021/06/26 00:29:30;;;;;;;3.77;3.37;;;;;;;22.30;100.00;97793.75;5053752;28;20252;-65
2021/06/26 00:31:57;;;;;;;4.30;3.90;;;;;;;22.29;100.00;97799.69;5068508;28;20215;-64
2021/06/26 00:34:23;;;;;;;3.37;3.07;;;;;;;22.29;100.00;97800.53;5080377;28;20283;-66
2021/06/26 00:36:50;;;;;;;3.40;3.10;;;;;;;22.29;100.00;97794.56;5072593;28;20254;-66
2021/06/26 00:39:16;;;;;;;3.53;3.23;;;;;;;22.29;100.00;97800.53;5064167;28;20200;-64
2021/06/26 00:41:43;;;;;;;3.63;3.33;;;;;;;22.29;100.00;97786.88;5073149;28;20299;-66
2021/06/26 00:44:10;;;;;;;3.87;3.57;;;;;;;22.29;100.00;97792.00;5033350;28;20280;-65
2021/06/26 00:46:36;;;;;;;3.90;3.20;;;;;;;22.29;100.00;97794.56;5060282;28;20235;-65
2021/06/26 00:49:03;;;;;;;3.37;3.13;;;;;;;22.29;100.00;97792.00;5056692;28;20211;-65
2021/06/26 00:51:30;;;;;;;3.43;3.13;;;;;;;22.28;100.00;97791.13;5053353;28;20252;-63
2021/06/26 00:53:57;;;;;;;3.90;3.30;;;;;;;22.28;100.00;97791.13;5052911;28;20318;-65
2021/06/26 00:56:26;;;;;;;3.67;3.17;;;;;;;22.29;100.00;97797.13;5052970;28;20279;-65
2021/06/26 00:59:08;;;;;;;3.50;3.20;;;;;;;21.99;100.00;97739.88;5040419;28;20196;-65
2021/06/26 01:01:34;;;;;;;3.77;3.37;;;;;;;22.29;100.00;97790.28;5020520;28;20220;-66
2021/06/26 01:04:01;;;;;;;4.33;3.43;;;;;;;22.29;100.00;97782.63;5069204;28;20204;-67
2021/06/26 01:06:28;;;;;;;3.40;3.10;;;;;;;22.29;100.00;97780.06;5064573;28;20243;-66
2021/06/26 01:08:54;;;;;;;3.63;3.30;;;;;;;22.29;100.00;97774.09;5066785;28;20635;-65
2021/06/26 01:11:21;;;;;;;3.63;3.33;;;;;;;22.29;100.00;97782.63;5049946;28;20303;-64
2021/06/26 01:13:47;;;;;;;4.00;3.60;;;;;;;22.29;100.00;97777.50;5064573;28;20243;-65
2021/06/26 01:16:14;;;;;;;3.63;3.27;;;;;;;22.28;100.00;97774.88;5066766;28;20283;-65
2021/06/26 01:18:41;;;;;;;3.57;3.27;;;;;;;22.28;100.00;97769.75;5066403;28;20211;-65
2021/06/26 01:21:07;;;;;;;4.00;3.70;;;;;;;22.09;100.00;97735.09;5052927;22;20260;-59
2021/06/26 01:23:34;;;;;;;3.60;3.30;;;;;;;22.28;100.00;97767.22;5032539;28;20208;-62
2021/06/26 01:26:01;;;;;;;3.70;3.40;;;;;;;22.25;100.00;97764.56;5029379;28;20670;-62
2021/06/26 01:28:28;;;;;;;3.87;3.57;;;;;;;21.61;100.00;97649.97;5031813;28;20232;-61
2021/06/26 01:30:54;;;;;;;3.60;3.30;;;;;;;22.28;100.00;97762.09;5031679;28;20621;-62
2021/06/26 01:33:21;;;;;;;3.53;3.23;;;;;;;22.24;100.00;97755.16;5033435;28;20320;-61
2021/06/26 01:35:48;;;;;;;5.53;3.17;;;;;;;22.28;100.00;97762.09;5027380;28;20274;-62
2021/06/26 01:38:15;;;;;;;3.23;2.93;;;;;;;22.27;100.00;97751.00;5024052;28;20230;-62
2021/06/26 01:40:41;;;;;;;3.37;3.07;;;;;;;22.28;100.00;97751.84;5025996;28;20261;-61
2021/06/26 01:43:11;;;;;;;3.23;3.00;;;;;;;22.27;100.00;97745.88;5024988;28;20225;-61
2021/06/26 01:45:38;;;;;;;3.10;2.90;;;;;;;22.24;100.00;97744.91;5024702;28;20198;-62
2021/06/26 01:48:05;;;;;;;4.87;3.37;;;;;;;22.27;100.00;97745.88;5025490;28;20562;-62
2021/06/26 01:50:32;;;;;;;3.30;3.00;;;;;;;22.29;100.00;97751.03;5027309;28;20218;-62
2021/06/26 01:53:00;;;;;;;3.30;3.00;;;;;;;22.29;100.00;97753.59;5023508;28;20793;-62
2021/06/26 01:55:27;;;;;;;3.50;3.20;;;;;;;22.28;100.00;97752.72;5030521;28;20202;-61
2021/06/26 01:57:54;;;;;;;3.30;3.00;;;;;;;22.27;100.00;97753.56;5023845;28;20296;-62
2021/06/26 02:00:21;;;;;;;3.47;3.17;;;;;;;22.21;100.00;97732.91;5030418;28;20298;-61
2021/06/26 02:02:48;;;;;;;3.10;2.90;;;;;;;22.27;100.00;97752.69;5022819;28;20218;-62
2021/06/26 02:05:17;;;;;;;3.50;3.20;;;;;;;22.26;100.00;97748.38;5029161;28;20297;-61
2021/06/26 02:07:47;;;;;;;3.57;3.27;;;;;;;22.26;100.00;97741.56;5025223;28;20232;-62
2021/06/26 02:10:13;;;;;;;3.97;3.47;;;;;;;22.26;100.00;97746.69;5021616;28;20310;-62
2021/06/26 02:12:41;;;;;;;3.50;3.20;;;;;;;22.25;100.00;97738.94;5030532;28;20740;-62
2021/06/26 02:15:08;;;;;;;3.47;3.20;;;;;;;22.20;100.00;97722.59;5022506;28;20194;-61
2021/06/26 02:17:35;;;;;;;3.50;3.20;;;;;;;22.26;100.00;97743.28;5028454;28;20240;-62
2021/06/26 02:20:04;;;;;;;3.60;3.30;;;;;;;22.25;100.00;97737.28;5022522;28;20797;-62
2021/06/26 02:22:30;;;;;;;5.03;3.47;;;;;;;22.26;100.00;97735.59;5030531;28;20288;-62
2021/06/26 02:24:57;;;;;;;3.80;3.50;;;;;;;22.25;100.00;97737.28;5025098;28;20225;-62
2021/06/26 02:27:23;;;;;;;3.83;2.97;;;;;;;22.25;100.00;97726.16;5028113;28;20222;-62
2021/06/26 02:29:50;;;;;;;3.73;3.43;;;;;;;22.26;100.00;97730.47;5026244;28;20244;-62
2021/06/26 02:32:17;;;;;;;3.07;2.87;;;;;;;22.25;100.00;97728.72;5025466;28;20752;-62
2021/06/26 02:34:43;;;;;;;3.60;3.30;;;;;;;22.26;100.00;97733.03;5028578;28;20624;-62
2021/06/26 02:37:10;;;;;;;3.53;3.23;;;;;;;22.24;100.00;97740.66;5004671;28;20666;-62
2021/06/26 02:39:36;;;;;;;3.83;3.53;;;;;;;22.26;100.00;97744.13;5031379;28;20229;-61
2021/06/26 02:42:03;;;;;;;4.00;3.60;;;;;;;22.26;100.00;97750.94;5022690;28;20218;-62
2021/06/26 02:44:29;;;;;;;4.20;3.80;;;;;;;22.26;100.00;97754.34;5025761;28;20637;-61
2021/06/26 02:46:56;;;;;;;3.80;3.50;;;;;;;22.26;100.00;97756.06;5024483;28;20626;-62
2021/06/26 02:49:23;;;;;;;3.70;3.37;;;;;;;22.26;100.00;97756.06;5031310;28;20320;-61
2021/06/26 02:51:50;;;;;;;3.83;3.53;;;;;;;22.26;100.00;97751.78;5030659;28;20256;-63
2021/06/26 02:54:17;;;;;;;3.63;3.33;;;;;;;22.27;100.00;97750.13;5029969;28;20341;-61
2021/06/26 02:56:44;;;;;;;4.13;3.33;;;;;;;22.26;100.00;97750.94;5028100;28;20237;-62
2021/06/26 02:59:10;;;;;;;3.70;3.40;;;;;;;22.23;100.00;97744.03;5028759;28;20293;-61
2021/06/26 03:01:37;;;;;;;4.13;3.83;;;;;;;22.26;100.00;97746.69;5029996;28;20267;-61
2021/06/26 03:04:04;;;;;;;3.77;3.13;;;;;;;22.27;100.00;97747.56;5028146;28;20194;-61
2021/06/26 03:06:31;;;;;;;3.97;3.67;;;;;;;22.26;100.00;97756.06;5027672;28;20201;-61
2021/06/26 03:08:58;;;;;;;4.17;3.60;;;;;;;22.28;100.00;97754.41;5027678;28;20275;-63
2021/06/26 03:11:25;;;;;;;3.50;3.30;;;;;;;22.27;100.00;97753.56;5030656;28;20618;-61
2021/06/26 03:13:51;;;;;;;3.70;3.40;;;;;;;22.21;100.00;97740.56;5026975;28;20257;-61
2021/06/26 03:16:18;;;;;;;3.43;3.20;;;;;;;22.27;100.00;97755.25;5027591;28;20225;-61
2021/06/26 03:18:44;;;;;;;4.40;4.00;;;;;;;22.27;100.00;97747.56;5025872;28;20201;-61
2021/06/26 03:21:11;;;;;;;3.93;3.53;;;;;;;22.26;100.00;97754.34;5029663;28;20256;-62
2021/06/26 03:23:38;;;;;;;3.97;3.67;;;;;;;22.27;100.00;97755.25;5030043;28;20240;-61
2021/06/26 03:26:06;;;;;;;3.83;3.53;;;;;;;22.24;100.00;97747.47;5026729;28;20236;-62
2021/06/26 03:28:33;;;;;;;6.30;3.80;;;;;;;22.28;100.00;97744.16;5023090;28;20229;-62
2021/06/26 03:31:00;;;;;;;3.60;3.30;;;;;;;22.23;100.00;97744.03;5029417;28;20811;-62
2021/06/26 03:33:27;;;;;;;5.27;3.90;;;;;;;22.27;100.00;97743.31;5030284;28;20297;-61
2021/06/26 03:35:53;;;;;;;4.10;3.70;;;;;;;22.27;100.00;97748.44;5011452;28;20237;-62
2021/06/26 03:38:20;;;;;;;4.07;3.77;;;;;;;22.27;100.00;97753.56;5022880;28;20263;-62
2021/06/26 03:40:49;;;;;;;3.67;3.37;;;;;;;22.27;100.00;97752.69;5029971;28;20221;-62
2021/06/26 03:43:16;;;;;;;4.03;3.70;;;;;;;22.25;100.00;97755.19;5029688;28;20236;-60
2021/06/26 03:45:43;;;;;;;3.90;3.50;;;;;;;22.26;100.00;97750.94;5026371;28;20289;-61
2021/06/26 03:48:09;;;;;;;3.90;3.60;;;;;;;22.25;100.00;97747.50;5028931;28;20641;-62
2021/06/26 03:50:38;;;;;;;3.63;3.33;;;;;;;22.25;100.00;97756.88;5028051;28;20638;-61
2021/06/26 03:53:05;;;;;;;3.73;3.30;;;;;;;22.24;100.00;97752.59;5032593;28;20274;-63
2021/06/26 03:55:31;;;;;;;4.10;3.70;;;;;;;22.22;100.00;97754.22;5025810;28;20679;-61
2021/06/26 03:57:58;;;;;;;5.37;3.50;;;;;;;22.17;100.00;97750.69;5029431;28;20240;-61
2021/06/26 04:00:24;;;;;;;3.90;3.60;;;;;;;22.23;100.00;97761.09;5023360;28;20297;-62
2021/06/26 04:02:51;;;;;;;5.10;3.60;;;;;;;22.23;100.00;97755.97;5026330;28;20244;-62
2021/06/26 04:05:18;;;;;;;4.10;3.70;;;;;;;22.16;100.00;97744.69;5016794;28;20653;-62
2021/06/26 04:07:44;;;;;;;4.03;3.63;;;;;;;22.16;100.00;97752.34;5025775;28;20724;-62
2021/06/26 04:10:11;;;;;;;10.63;3.73;;;;;;;22.21;100.00;97757.63;5025936;28;20224;-63
2021/06/26 04:12:37;;;;;;;3.77;3.47;;;;;;;22.21;100.00;97761.06;5029223;28;20236;-62
2021/06/26 04:15:05;;;;;;;5.03;3.80;;;;;;;22.22;100.00;97767.03;5022976;28;20253;-62
2021/06/26 04:17:31;;;;;;;3.63;3.33;;;;;;;22.21;100.00;97771.28;5022227;28;20291;-61
2021/06/26 04:19:58;;;;;;;3.87;3.40;;;;;;;22.15;100.00;97763.44;5025685;28;20751;-62
2021/06/26 04:22:25;;;;;;;5.03;3.87;;;;;;;22.21;100.00;97771.28;5006417;28;20229;-62
2021/06/26 04:24:51;;;;;;;3.73;3.43;;;;;;;22.22;100.00;97772.13;5030785;28;20288;-62
2021/06/26 04:27:18;;;;;;;3.80;3.50;;;;;;;22.22;100.00;97770.47;5023168;28;20289;-62
2021/06/26 04:29:44;;;;;;;5.30;4.07;;;;;;;22.22;100.00;97773.03;5028121;28;20594;-62
2021/06/26 04:32:11;;;;;;;6.27;3.67;;;;;;;22.22;100.00;97769.59;5023546;28;20241;-62
2021/06/26 04:34:38;;;;;;;4.20;3.90;;;;;;;22.22;100.00;97762.78;5024499;28;20257;-61
2021/06/26 04:37:06;;;;;;;3.93;3.63;;;;;;;22.24;100.00;97765.38;5022915;28;20286;-62
2021/06/26 04:39:33;;;;;;;4.60;4.20;;;;;;;22.18;100.00;97749.84;5032268;28;20208;-61
2021/06/26 04:42:00;;;;;;;6.00;3.90;;;;;;;22.22;100.00;97757.66;5022790;28;20307;-63
2021/06/26 04:44:27;;;;;;;4.00;3.60;;;;;;;22.24;100.00;97757.72;5024460;28;20267;-62
2021/06/26 04:46:54;;;;;;;4.67;4.23;;;;;;;22.22;100.00;97757.66;5028681;28;20236;-60
2021/06/26 04:49:20;;;;;;;6.00;4.30;;;;;;;22.23;100.00;97758.53;5021483;28;20668;-62
2021/06/26 04:51:47;;;;;;;6.13;4.43;;;;;;;22.23;100.00;97750.84;5024249;28;20748;-61
2021/06/26 04:54:13;;;;;;;5.50;5.00;;;;;;;22.23;100.00;97753.41;5024185;28;20265;-61
2021/06/26 04:56:40;;;;;;;6.87;5.10;;;;;;;22.23;100.00;97756.81;5032763;28;20244;-61
2021/06/26 04:59:07;;;;;;;5.97;5.47;;;;;;;22.23;100.00;97754.25;5032066;28;20197;-62
2021/06/26 05:01:33;;;;;;;6.43;5.27;;;;;;;22.20;100.00;97754.16;5031363;28;20236;-62
2021/06/26 05:04:00;;;;;;;6.00;5.50;;;;;;;22.24;100.00;97757.72;5030894;28;20205;-61
2021/06/26 05:06:27;;;;;;;5.70;5.20;;;;;;;22.22;100.00;97761.91;5027663;28;20225;-61
2021/06/26 05:08:53;;;;;;;5.73;5.20;;;;;;;22.22;100.00;97759.34;5029766;28;20240;-62
2021/06/26 05:11:20;;;;;;;5.70;5.20;;;;;;;22.19;100.00;97759.25;5026974;28;20236;-61
2021/06/26 05:13:47;;;;;;;5.77;5.17;;;;;;;22.21;100.00;97760.19;5026129;28;20253;-62
2021/06/26 05:16:13;;;;;;;6.10;5.50;;;;;;;22.20;100.00;97766.13;5023974;28;20225;-62
2021/06/26 05:18:40;;;;;;;5.20;4.70;;;;;;;22.19;100.00;97762.69;5024635;28;20292;-62
2021/06/26 05:21:07;;;;;;;6.20;5.50;;;;;;;22.19;100.00;97772.06;5026650;28;20307;-61
2021/06/26 05:23:33;;;;;;;6.87;5.67;;;;;;;22.18;100.00;97765.19;5028870;28;20653;-62
2021/06/26 05:26:00;;;;;;;6.30;5.80;;;;;;;22.18;100.00;97765.19;5029504;28;20232;-64
2021/06/26 05:28:27;;;;;;;6.57;5.80;;;;;;;22.17;100.00;97768.59;5026408;28;20670;-62
2021/06/26 05:30:53;;;;;;;7.17;6.20;;;;;;;22.18;100.00;97775.44;5021452;28;20331;-62
2021/06/26 05:33:20;;;;;;;6.20;5.70;;;;;;;22.18;100.00;97772.88;5018128;28;20245;-63
2021/06/26 05:35:49;;;;;;;6.30;5.70;;;;;;;22.18;100.00;97772.88;5014067;28;20905;-60
2021/06/26 05:38:16;;;;;;;6.60;6.00;;;;;;;22.15;100.00;97766.00;5034778;28;20247;-62
2021/06/26 05:40:42;;;;;;;6.70;6.10;;;;;;;22.19;100.00;97769.50;5030982;28;20244;-61
2021/06/26 05:43:09;;;;;;;6.37;5.77;;;;;;;22.18;100.00;97766.09;5031656;28;20742;-61
2021/06/26 05:45:36;;;;;;;6.63;6.03;;;;;;;22.14;100.00;97761.66;5034450;28;20673;-62
2021/06/26 05:48:02;;;;;;;7.83;7.03;;;;;;;22.19;100.00;97772.06;5027590;28;20202;-61
2021/06/26 05:50:29;;;;;;;7.70;7.00;;;;;;;22.20;100.00;97781.50;5029929;28;20218;-62
2021/06/26 05:52:56;;;;;;;7.10;6.50;;;;;;;22.12;100.00;97758.22;5021702;28;20209;-62
2021/06/26 05:55:24;;;;;;;6.27;5.60;;;;;;;22.19;100.00;97770.38;5029552;28;20699;-61
2021/06/26 05:57:50;;;;;;;6.00;5.50;;;;;;;22.21;100.00;97773.84;5029086;28;20240;-62
2021/06/26 06:00:18;;;;;;;5.73;4.87;;;;;;;22.20;100.00;97764.41;5031687;28;20600;-62
2021/06/26 06:02:45;;;;;;;5.97;5.37;;;;;;;22.12;100.00;97753.09;5022160;28;20258;-63
2021/06/26 06:05:14;;;;;;;5.10;4.70;;;;;;;22.19;100.00;97764.38;5030436;28;20221;-62
2021/06/26 06:07:41;;;;;;;5.43;4.93;;;;;;;22.17;100.00;97763.47;5031644;28;20259;-63
2021/06/26 06:10:09;;;;;;;5.37;4.87;;;;;;;21.70;100.00;97690.28;5026248;28;20301;-62
2021/06/26 06:12:36;;;;;;;6.13;5.53;;;;;;;22.22;100.00;97765.34;5023963;28;20256;-62
2021/06/26 06:15:04;;;;;;;7.63;5.20;;;;;;;22.22;100.00;97770.47;5029621;28;20217;-62
2021/06/26 06:17:31;;;;;;;6.03;5.50;;;;;;;22.23;100.00;97768.78;5027764;28;20233;-61
2021/06/26 06:19:57;;;;;;;6.03;5.53;;;;;;;22.23;100.00;97772.19;5026214;28;20285;-62
2021/06/26 06:22:27;;;;;;;7.87;7.07;;;;;;;22.24;100.00;97773.06;5032721;28;20201;-62
2021/06/26 06:24:53;;;;;;;8.40;7.60;;;;;;;22.04;100.00;97738.31;5033667;28;20251;-62
2021/06/26 06:27:20;;;;;;;9.10;8.20;;;;;;;22.20;100.00;97766.13;5027215;28;20229;-62
2021/06/26 06:29:47;;;;;;;10.77;8.67;;;;;;;22.23;100.00;97774.75;5029029;28;20642;-63
2021/06/26 06:32:13;;;;;;;11.47;10.33;;;;;;;22.23;100.00;97773.91;5023512;28;20841;-62
2021/06/26 06:34:40;;;;;;;12.07;10.77;;;;;;;22.22;100.00;97773.03;5025384;28;20221;-61
2021/06/26 06:37:06;;;;;;;12.90;11.60;;;;;;;22.22;100.00;97772.13;5028072;28;20277;-61
2021/06/26 06:39:33;;;;;;;12.57;11.03;;;;;;;22.20;100.00;97772.09;5026080;28;20290;-62
2021/06/26 06:42:00;;;;;;;11.60;10.47;;;;;;;22.20;100.00;97782.34;5021822;28;20254;-61
2021/06/26 06:44:26;;;;;;;10.07;9.13;;;;;;;22.17;100.00;97771.16;5020468;28;20226;-60
2021/06/26 06:46:53;;;;;;;10.20;9.17;;;;;;;22.19;100.00;97779.72;5030115;28;20753;-62
2021/06/26 06:49:20;;;;;;;11.07;9.53;;;;;;;22.19;100.00;97780.59;5028933;28;20225;-61
2021/06/26 06:51:46;;;;;;;11.23;8.87;;;;;;;22.19;100.00;97777.16;5027147;28;20257;-62
2021/06/26 06:54:13;;;;;;;9.20;8.30;;;;;;;22.18;100.00;97784.00;5022883;28;20248;-61
2021/06/26 06:56:39;;;;;;;14.50;8.60;;;;;;;22.17;100.00;97779.69;5030470;28;20233;-62
2021/06/26 06:59:06;;;;;;;10.27;8.97;;;;;;;22.14;100.00;97769.34;5030075;28;20732;-62
2021/06/26 07:01:33;;;;;;;11.27;9.20;;;;;;;22.19;100.00;97778.03;5010557;28;20252;-60
2021/06/26 07:04:00;;;;;;;9.90;9.00;;;;;;;22.11;100.00;97764.13;5028600;28;20272;-62
2021/06/26 07:06:26;;;;;;;10.17;9.17;;;;;;;22.19;100.00;97772.06;5016544;28;20285;-62
2021/06/26 07:08:53;;;;;;;10.33;9.27;;;;;;;22.19;100.00;97778.03;5007733;28;20209;-61
2021/06/26 07:11:19;;;;;;;10.80;9.80;;;;;;;22.19;100.00;97772.94;5028024;28;20249;-62
2021/06/26 07:13:46;;;;;;;10.00;8.97;;;;;;;22.19;100.00;97777.16;5030387;28;20641;-61
2021/06/26 07:16:12;;;;;;;13.20;11.53;;;;;;;22.19;100.00;97780.59;5024548;28;20281;-62
2021/06/26 07:18:39;;;;;;;11.13;9.97;;;;;;;22.19;100.00;97772.94;5029302;28;20694;-61
2021/06/26 07:21:06;;;;;;;12.63;11.37;;;;;;;22.11;100.00;97759.00;5051028;22;20701;-65
2021/06/26 07:23:33;;;;;;;12.23;10.97;;;;;;;21.86;100.00;97713.03;5048428;28;20232;-64
2021/06/26 07:25:59;;;;;;;13.40;11.40;;;;;;;21.91;100.00;97713.16;5022440;28;20208;-65
2021/06/26 07:28:26;;;;;;;13.10;11.80;;;;;;;21.87;100.00;97701.97;5013330;28;20731;-66
2021/06/26 07:30:52;;;;;;;12.23;10.97;;;;;;;22.21;100.00;97758.50;5017844;28;20720;-64
2021/06/26 07:33:19;;;;;;;12.40;11.03;;;;;;;22.22;100.00;97760.22;5048051;28;20216;-69
2021/06/26 07:35:46;;;;;;;11.83;10.60;;;;;;;22.19;100.00;97751.56;5030375;28;20220;-71
2021/06/26 07:38:12;;;;;;;11.97;10.77;;;;;;;22.21;100.00;97755.06;5033686;28;20284;-68
2021/06/26 07:40:39;;;;;;;12.20;11.00;;;;;;;22.24;100.00;97761.16;5006313;28;20263;-67
2021/06/26 07:43:05;;;;;;;11.77;10.57;;;;;;;22.25;100.00;97755.19;5051600;28;20201;-70
2021/06/26 07:45:32;;;;;;;12.33;10.63;;;;;;;22.24;100.00;97750.91;5031729;28;20316;-69
2021/06/26 07:47:59;;;;;;;11.37;10.17;;;;;;;22.21;100.00;97742.25;5049364;28;20232;-68
2021/06/26 07:50:26;;;;;;;11.63;10.43;;;;;;;22.26;100.00;97743.28;5031258;28;20224;-66
2021/06/26 07:52:52;;;;;;;11.40;10.20;;;;;;;22.27;100.00;97739.88;5048873;28;20284;-66
2021/06/26 07:55:19;;;;;;;11.37;10.30;;;;;;;22.19;100.00;97720.84;5029854;28;20617;-69
2021/06/26 07:57:45;;;;;;;11.00;9.90;;;;;;;22.27;100.00;97733.06;5031413;28;20606;-68
2021/06/26 08:00:13;;;;;;;11.97;10.77;;;;;;;22.26;100.00;97727.91;5045381;28;20232;-67
2021/06/26 08:02:39;;;;;;;12.03;10.83;;;;;;;22.18;100.00;97714.00;5048339;28;20256;-71
2021/06/26 08:05:06;;;;;;;11.43;10.33;;;;;;;22.30;100.00;97735.72;5024573;28;20904;-66
2021/06/26 08:07:49;;;;;;;11.70;10.60;;;;;;;22.31;100.00;97731.44;5042395;28;20234;-68
2021/06/26 08:10:16;;;;;;;13.27;11.17;;;;;;;22.31;100.00;97734.88;5044236;28;20287;-69
2021/06/26 08:12:43;;;;;;;12.23;10.93;;;;;;;21.99;100.00;97673.34;5048924;28;20312;-65
2021/06/26 08:15:10;;;;;;;12.33;11.10;;;;;;;22.23;100.00;97715.03;5023746;28;20319;-71
2021/06/26 08:17:36;;;;;;;13.03;10.87;;;;;;;22.25;100.00;97714.22;5026253;28;20237;-70
2021/06/26 08:20:03;;;;;;;14.73;11.83;;;;;;;22.25;100.00;97716.78;5027722;28;20293;-65
2021/06/26 08:22:30;;;;;;;11.70;10.50;;;;;;;22.34;100.00;97729.84;5022453;28;20328;-70
2021/06/26 08:24:57;;;;;;;15.93;11.47;;;;;;;22.33;100.00;97728.13;5029012;28;20205;-70
2021/06/26 08:27:23;;;;;;;11.80;10.70;;;;;;;22.33;100.00;97730.69;5045743;28;20655;-68
2021/06/26 08:29:50;;;;;;;12.13;10.97;;;;;;;22.33;100.00;97724.69;5046210;28;20219;-72
2021/06/26 08:32:16;;;;;;;12.90;11.60;;;;;;;22.28;100.00;97718.56;5026798;28;20251;-70
2021/06/26 08:34:43;;;;;;;11.47;10.40;;;;;;;22.23;100.00;97703.06;5043039;28;20229;-70
2021/06/26 08:37:30;;;;;;;12.30;10.37;;;;;;;22.28;100.00;97706.63;5049167;28;20205;-70
2021/06/26 08:39:56;;;;;;;12.00;10.80;;;;;;;22.21;100.00;97697.06;5031442;28;20286;-71
2021/06/26 08:42:23;;;;;;;12.63;11.13;;;;;;;22.31;100.00;97711.84;5029918;28;20293;-65
2021/06/26 08:45:02;;;;;;;11.67;10.57;;;;;;;22.32;100.00;97718.69;5031445;28;20236;-67
2021/06/26 08:47:29;;;;;;;12.33;11.13;;;;;;;22.32;100.00;97712.72;5033517;28;20235;-70
2021/06/26 08:49:55;;;;;;;13.27;11.97;;;;;;;22.32;100.00;97716.13;5032530;28;20220;-66
2021/06/26 08:52:22;;;;;;;11.97;10.77;;;;;;;22.32;100.00;97718.69;5032092;28;20259;-68
2021/06/26 08:54:50;;;;;;;12.47;11.27;;;;;;;22.05;100.00;97673.53;5030909;28;20285;-72
2021/06/26 08:57:33;;;;;;;12.20;11.00;;;;;;;22.18;100.00;97685.84;5031682;28;20710;-69
2021/06/26 09:00:00;;;;;;;12.77;11.43;;;;;;;22.33;100.00;97714.44;5031511;28;20204;-69
2021/06/26 09:02:28;;;;;;;11.90;10.77;;;;;;;22.33;100.00;97717.91;5027700;28;20382;-70
2021/06/26 09:04:55;;;;;;;12.70;11.40;;;;;;;22.23;100.00;97692.81;5046564;28;20292;-70
2021/06/26 09:07:34;;;;;;;12.33;11.13;;;;;;;22.20;100.00;97685.06;5048445;28;20311;-70
2021/06/26 09:10:14;;;;;;;11.93;10.73;;;;;;;22.19;100.00;97683.31;5032066;28;20232;-67
2021/06/26 09:12:42;;;;;;;12.30;11.20;;;;;;;22.28;100.00;97698.97;5011835;28;20303;-66
2021/06/26 09:15:10;;;;;;;12.03;10.93;;;;;;;22.33;100.00;97702.53;5017316;28;20225;-69
2021/06/26 09:17:36;;;;;;;12.13;10.93;;;;;;;22.29;100.00;97698.13;5031228;28;20236;-68
2021/06/26 09:20:08;;;;;;;11.53;10.53;;;;;;;22.33;100.00;97699.09;5031079;28;20291;-65
2021/06/26 09:22:39;;;;;;;11.60;10.47;;;;;;;22.31;100.00;97701.59;5031610;28;20336;-68
2021/06/26 09:25:20;;;;;;;11.87;10.77;;;;;;;22.31;100.00;97698.16;5028130;28;20334;-68
2021/06/26 09:27:47;;;;;;;11.03;10.03;;;;;;;21.98;100.00;97636.63;5000835;28;20223;-69
2021/06/26 09:30:14;;;;;;;11.23;10.13;;;;;;;22.29;100.00;97687.88;5030915;28;20632;-68
2021/06/26 09:32:43;;;;;;;10.63;9.63;;;;;;;22.22;100.00;97678.28;5031250;28;20260;-70
2021/06/26 09:35:15;;;;;;;11.53;10.43;;;;;;;22.19;100.00;97673.09;5014081;28;20220;-66
2021/06/26 09:37:41;;;;;;;11.40;10.33;;;;;;;22.22;100.00;97674.84;5050193;28;20291;-74
2021/06/26 09:40:08;;;;;;;10.67;9.67;;;;;;;22.30;100.00;97691.31;5017780;28;20283;-69
2021/06/26 09:42:39;;;;;;;11.33;10.13;;;;;;;22.25;100.00;97674.94;5028017;28;20321;-69
2021/06/26 09:45:07;;;;;;;10.77;9.73;;;;;;;22.30;100.00;97686.19;5022142;28;20225;-69
2021/06/26 09:47:44;;;;;;;11.10;10.07;;;;;;;22.22;100.00;97670.63;5030046;28;20324;-71
2021/06/26 09:50:19;;;;;;;12.93;9.47;;;;;;;21.97;100.00;97628.91;5006920;28;20292;-68
2021/06/26 09:52:47;;;;;;;10.13;9.13;;;;;;;21.94;100.00;97618.59;5012101;28;20239;-69
2021/06/26 09:55:35;;;;;;;10.30;9.40;;;;;;;22.04;100.00;97633.38;5027049;28;20274;-70
2021/06/26 09:58:07;;;;;;;9.63;8.73;;;;;;;22.31;100.00;97685.38;5014344;28;20200;-64
2021/06/26 10:00:33;;;;;;;9.40;8.50;;;;;;;22.21;100.00;97663.78;5024028;28;20360;-66
2021/06/26 10:03:01;;;;;;;10.70;9.60;;;;;;;22.28;100.00;97678.47;5011227;28;20221;-69
2021/06/26 10:05:27;;;;;;;10.10;9.13;;;;;;;22.29;100.00;97680.19;5027360;28;20278;-68
2021/06/26 10:07:55;;;;;;;9.97;9.13;;;;;;;22.09;100.00;97642.06;5027989;28;20201;-71
2021/06/26 10:10:22;;;;;;;10.30;9.30;;;;;;;22.29;100.00;97682.75;5022490;28;20201;-69
2021/06/26 10:12:50;;;;;;;9.93;9.00;;;;;;;22.15;100.00;97650.78;5027278;28;20642;-70
2021/06/26 10:15:19;;;;;;;10.03;9.03;;;;;;;22.16;100.00;97655.09;4990241;28;20216;-70
2021/06/26 10:17:45;;;;;;;10.00;9.10;;;;;;;22.19;100.00;97665.41;5008515;28;20498;-69
2021/06/26 10:20:14;;;;;;;9.93;8.90;;;;;;;22.14;100.00;97651.59;5024996;28;20569;-67
2021/06/26 10:22:42;;;;;;;9.73;8.80;;;;;;;22.24;100.00;97668.09;5012829;28;20282;-70
2021/06/26 10:25:09;;;;;;;9.47;8.57;;;;;;;22.27;100.00;97674.19;5025336;28;20289;-68
2021/06/26 10:27:36;;;;;;;9.47;8.57;;;;;;;22.20;100.00;97656.88;5040861;28;20236;-71
2021/06/26 10:30:13;;;;;;;9.37;8.37;;;;;;;22.19;100.00;97655.16;5012794;28;20708;-64
2021/06/26 10:33:09;;;;;;;12.60;8.87;;;;;;;22.28;100.00;97667.34;5028965;28;20817;-71
2021/06/26 10:35:39;;;;;;;9.10;8.30;;;;;;;22.20;100.00;97648.38;5013672;28;20779;-69
2021/06/26 10:38:07;;;;;;;11.63;8.33;;;;;;;22.29;100.00;97664.00;5020632;28;20786;-69
2021/06/26 10:40:54;;;;;;;9.83;7.87;;;;;;;22.29;100.00;97667.41;5025492;28;20207;-69
2021/06/26 10:43:31;;;;;;;8.77;7.97;;;;;;;22.16;100.00;97638.84;5038019;28;20232;-68
2021/06/26 10:46:11;;;;;;;8.70;7.90;;;;;;;22.21;100.00;97642.41;5011341;28;20208;-69
2021/06/26 10:48:39;;;;;;;8.90;8.00;;;;;;;21.96;100.00;97605.00;5021162;28;20859;-69
2021/06/26 10:51:07;;;;;;;9.30;8.47;;;;;;;22.24;100.00;97650.19;5021501;28;20225;-72
2021/06/26 10:53:38;;;;;;;8.10;7.40;;;;;;;22.29;100.00;97654.59;5024736;28;20211;-70
2021/06/26 10:56:10;;;;;;;9.00;8.20;;;;;;;21.86;100.00;97582.53;5022317;28;20249;-68
2021/06/26 10:58:41;;;;;;;8.47;7.67;;;;;;;22.20;100.00;97650.94;5027483;28;20236;-68
2021/06/26 11:01:12;;;;;;;8.63;7.93;;;;;;;22.19;100.00;97641.50;5019422;28;20782;-69
2021/06/26 11:03:39;;;;;;;8.07;7.37;;;;;;;22.27;100.00;97658.81;5013633;28;20674;-70
2021/06/26 11:06:17;;;;;;;8.50;7.70;;;;;;;22.27;100.00;97660.50;5028758;28;20722;-72
2021/06/26 11:09:13;;;;;;;7.80;7.10;;;;;;;22.26;100.00;97659.63;5014689;28;20250;-66
2021/06/26 11:11:44;;;;;;;8.17;7.47;;;;;;;22.03;100.00;97611.19;5030060;28;20767;-68
2021/06/26 11:14:13;;;;;;;7.53;6.83;;;;;;;21.45;100.00;97521.59;5012869;28;20243;-71
2021/06/26 11:16:42;;;;;;;12.00;7.23;;;;;;;22.24;100.00;97650.19;5012756;28;20231;-68
2021/06/26 11:19:08;;;;;;;8.37;7.57;;;;;;;22.10;100.00;97624.19;5018163;28;20209;-71
2021/06/26 11:21:54;;;;;;;7.93;7.23;;;;;;;21.98;100.00;97611.03;5033644;28;20306;-70
2021/06/26 11:24:32;;;;;;;7.77;7.07;;;;;;;22.13;100.00;97628.50;5025762;28;20202;-69